Time;durP1;ratioP1;P1;durP2;ratioP2;P2;SDS_P1;SDS_P2;PMS_P1;PMS_P2;Temp;Humidity;BMP_temperature;BMP_pressure;BME280_temperature;BME280_humidity;BME280_pressure;Samples;Min_cycle;Max_cycle;Signal;HPM_P1;HPM_P2
2023/05/25 00:00:33;;;;;;;7.53;4.50;;;;;;;7.63;100.00;100774.00;5003646;28;20217;-68
2023/05/25 00:02:59;;;;;;;8.40;3.93;;;;;;;7.63;100.00;100774.88;5013467;28;20183;-67
2023/05/25 00:05:26;;;;;;;8.47;3.90;;;;;;;7.46;100.00;100769.44;4999088;28;20179;-68
2023/05/25 00:07:52;;;;;;;10.17;3.90;;;;;;;7.55;100.00;100769.13;5001512;28;20211;-68
2023/05/25 00:10:18;;;;;;;7.10;3.57;;;;;;;7.52;100.00;100774.38;4999105;28;20265;-68
2023/05/25 00:12:43;;;;;;;9.90;4.23;;;;;;;7.54;100.00;100770.88;5016931;28;20194;-68
2023/05/25 00:15:09;;;;;;;5.43;3.90;;;;;;;7.35;100.00;100767.19;5007554;28;20599;-68
2023/05/25 00:17:36;;;;;;;6.77;3.80;;;;;;;7.47;100.00;100769.38;5002018;28;20263;-68
2023/05/25 00:20:08;;;;;;;8.97;3.83;;;;;;;7.48;100.00;100767.63;5012329;28;20187;-67
2023/05/25 00:22:37;;;;;;;8.23;4.00;;;;;;;7.40;100.00;100763.59;4999403;28;20217;-67
2023/05/25 00:25:03;;;;;;;5.30;3.70;;;;;;;7.48;100.00;100770.19;5011967;28;20650;-68
2023/05/25 00:27:30;;;;;;;10.33;3.63;;;;;;;7.55;100.00;100769.13;4999224;28;20658;-67
2023/05/25 00:29:55;;;;;;;5.97;4.10;;;;;;;7.57;100.00;100764.81;4998470;28;20701;-67
2023/05/25 00:32:20;;;;;;;9.50;4.43;;;;;;;7.50;100.00;100763.31;5003939;28;20249;-67
2023/05/25 00:34:46;;;;;;;8.47;4.27;;;;;;;7.54;100.00;100757.22;5005584;28;20237;-67
2023/05/25 00:37:12;;;;;;;6.07;4.23;;;;;;;7.53;100.00;100764.06;5004156;28;20178;-68
2023/05/25 00:39:37;;;;;;;8.67;3.93;;;;;;;7.53;100.00;100753.81;5011900;28;20583;-67
2023/05/25 00:42:05;;;;;;;6.50;4.20;;;;;;;7.53;100.00;100764.06;5017519;28;20226;-67
2023/05/25 00:44:30;;;;;;;7.47;4.20;;;;;;;7.44;100.00;100754.09;5012325;28;20550;-67
2023/05/25 00:46:56;;;;;;;8.77;4.13;;;;;;;7.52;100.00;100756.44;5010413;28;20187;-67
2023/05/25 00:49:22;;;;;;;6.10;4.07;;;;;;;7.50;100.00;100748.78;5011874;28;20261;-67
2023/05/25 00:51:47;;;;;;;13.03;4.87;;;;;;;7.55;100.00;100751.22;5015083;28;20308;-67
2023/05/25 00:54:14;;;;;;;8.00;4.20;;;;;;;7.46;100.00;100754.91;5013317;28;20273;-67
2023/05/25 00:56:45;;;;;;;6.53;4.57;;;;;;;7.64;100.00;100747.53;5011670;28;20186;-67
2023/05/25 00:59:16;;;;;;;9.30;4.93;;;;;;;7.70;100.00;100760.97;5011661;28;20182;-67
2023/05/25 01:05:05;;;;;;;7.80;4.30;;;;;;;7.71;100.00;100749.00;5003258;28;20192;-67
2023/05/25 01:07:32;;;;;;;7.80;4.47;;;;;;;7.69;100.00;100750.75;5010698;28;20216;-67
2023/05/25 01:10:01;;;;;;;9.00;4.90;;;;;;;7.77;100.00;100751.38;5011435;28;20225;-66
2023/05/25 01:12:29;;;;;;;8.20;5.20;;;;;;;7.81;100.00;100757.22;5016893;28;20254;-67
2023/05/25 01:14:55;;;;;;;11.50;4.77;;;;;;;7.95;100.00;100755.06;5010032;28;20269;-66
2023/05/25 01:17:21;;;;;;;8.70;4.57;;;;;;;7.96;100.00;100754.16;5011502;28;20269;-67
2023/05/25 01:19:46;;;;;;;7.40;4.70;;;;;;;8.05;100.00;100764.09;5006891;28;20195;-66
2023/05/25 01:22:18;;;;;;;7.57;5.27;;;;;;;8.14;100.00;100760.41;5005705;28;20335;-68
2023/05/25 01:24:48;;;;;;;7.10;5.03;;;;;;;8.22;100.00;100765.25;5011698;28;20190;-67
2023/05/25 01:27:26;;;;;;;8.60;4.97;;;;;;;8.22;100.00;100767.81;5011244;28;20286;-67
2023/05/25 01:29:53;;;;;;;7.23;4.50;;;;;;;8.17;100.00;100765.41;4998386;28;20187;-66
2023/05/25 01:32:18;;;;;;;7.63;4.70;;;;;;;8.30;100.00;100767.53;5016879;28;20284;-66
2023/05/25 01:34:45;;;;;;;10.20;5.00;;;;;;;8.24;100.00;100766.88;5011623;28;20638;-67
2023/05/25 01:37:16;;;;;;;11.27;5.00;;;;;;;8.22;100.00;100765.25;5011215;28;20194;-67
2023/05/25 01:39:42;;;;;;;9.30;5.27;;;;;;;8.32;100.00;100764.06;5011411;28;20674;-67
2023/05/25 01:42:07;;;;;;;11.83;4.97;;;;;;;8.28;100.00;100769.34;5018633;28;20313;-67
2023/05/25 01:44:32;;;;;;;11.60;5.07;;;;;;;8.39;100.00;100769.81;5015111;28;20198;-67
2023/05/25 01:47:03;;;;;;;8.73;5.23;;;;;;;8.37;100.00;100758.75;5014763;28;20179;-67
2023/05/25 01:49:39;;;;;;;8.47;5.13;;;;;;;8.41;100.00;100757.78;5013585;28;20211;-66
2023/05/25 01:52:20;;;;;;;8.47;4.93;;;;;;;8.44;100.00;100755.09;5019851;28;20237;-67
2023/05/25 01:55:16;;;;;;;10.23;4.83;;;;;;;8.31;100.00;100766.66;5014874;28;20657;-66
2023/05/25 01:57:48;;;;;;;8.57;5.33;;;;;;;8.32;100.00;100771.75;4973144;28;20188;-66
2023/05/25 02:00:14;;;;;;;8.37;5.13;;;;;;;8.36;100.00;100770.75;4963592;28;20188;-66
2023/05/25 02:02:42;;;;;;;10.73;5.60;;;;;;;8.37;100.00;100769.88;4973275;28;20203;-65
2023/05/25 02:05:08;;;;;;;9.70;5.67;;;;;;;8.35;100.00;100781.91;4972787;28;20798;-66
2023/05/25 02:07:35;;;;;;;10.00;5.37;;;;;;;8.36;100.00;100777.59;4973072;28;20330;-66
2023/05/25 02:10:00;;;;;;;8.30;4.83;;;;;;;8.44;100.00;100767.09;4972939;28;20224;-67
2023/05/25 02:12:25;;;;;;;11.63;5.70;;;;;;;8.46;100.00;100767.84;4963553;28;20227;-67
2023/05/25 02:14:50;;;;;;;10.67;5.47;;;;;;;8.49;100.00;100771.19;4973548;28;20192;-67
2023/05/25 02:17:18;;;;;;;12.47;6.90;;;;;;;8.45;100.00;100766.22;4972338;28;20204;-67
2023/05/25 02:19:47;;;;;;;14.87;5.97;;;;;;;8.52;100.00;100767.66;4973141;28;20188;-67
2023/05/25 02:22:12;;;;;;;10.33;5.70;;;;;;;8.45;100.00;100772.16;4948585;28;20251;-67
2023/05/25 02:24:38;;;;;;;12.87;5.23;;;;;;;8.46;100.00;100775.56;4973071;28;20781;-66
2023/05/25 02:27:05;;;;;;;12.13;5.70;;;;;;;8.43;100.00;100763.69;4972343;28;20199;-66
2023/05/25 02:29:30;;;;;;;10.90;5.87;;;;;;;8.31;100.00;100769.22;4972959;28;20184;-67
2023/05/25 02:31:55;;;;;;;7.70;5.27;;;;;;;8.28;100.00;100767.59;4962506;28;20271;-67
2023/05/25 02:34:20;;;;;;;9.77;6.17;;;;;;;8.24;100.00;100764.31;4996846;28;20624;-66
2023/05/25 02:36:46;;;;;;;9.83;5.43;;;;;;;8.08;100.00;100764.00;5013642;28;20182;-67
2023/05/25 02:39:11;;;;;;;12.93;6.73;;;;;;;8.09;100.00;100757.16;5014155;28;20236;-66
2023/05/25 02:41:37;;;;;;;10.37;5.37;;;;;;;8.11;100.00;100750.22;5015949;28;20276;-66
2023/05/25 02:44:02;;;;;;;10.07;6.17;;;;;;;8.01;100.00;100748.88;4996348;28;20190;-66
2023/05/25 02:46:28;;;;;;;9.23;5.13;;;;;;;7.88;100.00;100753.59;5027674;28;20179;-67
2023/05/25 02:48:53;;;;;;;9.53;6.17;;;;;;;7.83;100.00;100750.34;5028542;28;20186;-66
2023/05/25 02:51:18;;;;;;;7.40;5.87;;;;;;;7.68;100.00;100755.06;5013256;28;20225;-66
2023/05/25 02:53:43;;;;;;;8.00;5.83;;;;;;;7.60;100.00;100762.13;5018918;28;20178;-66
2023/05/25 02:56:11;;;;;;;12.70;6.50;;;;;;;7.56;100.00;100765.69;5012921;28;20549;-66
2023/05/25 02:58:37;;;;;;;11.03;6.50;;;;;;;7.46;100.00;100767.69;5013809;28;20198;-66
2023/05/25 03:01:04;;;;;;;14.67;5.93;;;;;;;7.49;100.00;100767.63;4992955;28;20315;-67
2023/05/25 03:03:29;;;;;;;9.57;5.70;;;;;;;7.43;100.00;100765.25;5012969;28;20190;-66
2023/05/25 03:05:56;;;;;;;10.73;6.60;;;;;;;7.39;100.00;100754.25;5012833;28;20183;-66
2023/05/25 03:08:21;;;;;;;13.70;6.30;;;;;;;7.32;100.00;100763.00;5012384;28;20174;-66
2023/05/25 03:10:47;;;;;;;13.73;6.33;;;;;;;7.30;100.00;100766.50;5008797;28;20597;-68
2023/05/25 03:13:12;;;;;;;11.73;6.47;;;;;;;7.30;100.00;100766.50;5022907;28;20202;-67
2023/05/25 03:15:39;;;;;;;9.83;6.17;;;;;;;7.20;100.00;100771.88;5004495;28;20281;-68
2023/05/25 03:18:04;;;;;;;12.37;6.90;;;;;;;7.30;100.00;100779.28;5023906;28;20202;-68
2023/05/25 03:20:31;;;;;;;9.57;6.67;;;;;;;7.20;100.00;100779.56;5006476;28;20671;-67
2023/05/25 03:22:56;;;;;;;8.13;5.83;;;;;;;7.17;100.00;100774.53;5024770;28;20198;-67
2023/05/25 03:25:22;;;;;;;11.23;7.03;;;;;;;7.15;100.00;100773.75;5012710;28;20189;-67
2023/05/25 03:27:50;;;;;;;10.80;6.47;;;;;;;7.15;100.00;100780.59;5013257;28;20181;-67
2023/05/25 03:30:16;;;;;;;13.97;6.13;;;;;;;6.98;100.00;100773.41;4971023;28;20182;-67
2023/05/25 03:32:41;;;;;;;11.33;6.57;;;;;;;7.05;100.00;100785.13;5026568;28;20205;-67
2023/05/25 03:35:06;;;;;;;12.80;7.00;;;;;;;7.12;100.00;100776.41;5012814;28;20560;-67
2023/05/25 03:37:32;;;;;;;9.70;6.27;;;;;;;7.13;100.00;100778.06;5013336;28;20649;-66
2023/05/25 03:39:57;;;;;;;10.97;8.00;;;;;;;7.13;100.00;100775.50;5012633;28;20660;-67
2023/05/25 03:42:22;;;;;;;13.33;6.87;;;;;;;7.18;100.00;100770.25;5018046;28;20231;-67
2023/05/25 03:44:47;;;;;;;15.00;7.53;;;;;;;7.10;100.00;100771.31;5012636;28;20179;-67
2023/05/25 03:47:13;;;;;;;13.93;8.30;;;;;;;6.92;100.00;100770.13;5012301;28;20262;-67
2023/05/25 03:49:38;;;;;;;10.37;7.17;;;;;;;7.17;100.00;100777.09;5012708;28;20204;-67
2023/05/25 03:52:05;;;;;;;13.13;7.60;;;;;;;7.19;100.00;100779.59;5004154;28;20236;-67
2023/05/25 03:54:30;;;;;;;12.27;7.87;;;;;;;7.22;100.00;100782.09;5011274;28;20175;-67
2023/05/25 03:56:57;;;;;;;12.13;7.87;;;;;;;7.19;100.00;100784.72;5012345;28;20274;-67
2023/05/25 03:59:24;;;;;;;11.53;7.77;;;;;;;7.23;100.00;100791.41;5012259;28;20177;-66
2023/05/25 04:01:49;;;;;;;14.07;8.00;;;;;;;7.23;100.00;100787.16;5004144;28;20905;-67
2023/05/25 04:04:14;;;;;;;8.83;7.43;;;;;;;7.27;100.00;100793.84;5013606;28;20178;-68
2023/05/25 04:06:41;;;;;;;11.93;7.70;;;;;;;7.33;100.00;100797.09;5011641;28;20702;-67
2023/05/25 04:09:06;;;;;;;12.10;7.83;;;;;;;7.38;100.00;100798.66;5012401;28;20213;-67
2023/05/25 04:11:32;;;;;;;14.30;8.03;;;;;;;7.37;100.00;100794.41;5013666;28;20253;-67
2023/05/25 04:13:58;;;;;;;12.07;7.77;;;;;;;7.51;100.00;100800.84;5010760;28;20186;-67
2023/05/25 04:16:24;;;;;;;12.07;7.70;;;;;;;7.47;100.00;100799.25;5011863;28;20188;-67
2023/05/25 04:18:50;;;;;;;11.37;8.33;;;;;;;7.56;100.00;100804.91;5010459;28;20221;-67
2023/05/25 04:21:15;;;;;;;13.93;8.20;;;;;;;7.70;100.00;100809.63;5011449;28;20233;-67
2023/05/25 04:23:41;;;;;;;13.73;8.00;;;;;;;7.76;100.00;100808.59;5017965;28;20269;-66
2023/05/25 04:26:09;;;;;;;13.07;7.43;;;;;;;7.80;100.00;100804.22;5011517;28;20236;-67
2023/05/25 04:28:35;;;;;;;12.43;6.50;;;;;;;7.87;100.00;100814.22;5011995;28;20186;-66
2023/05/25 04:31:02;;;;;;;10.10;6.67;;;;;;;8.09;100.00;100816.09;5009385;28;20225;-67
2023/05/25 04:33:28;;;;;;;9.93;6.97;;;;;;;8.20;100.00;100818.31;5010433;28;20292;-67
2023/05/25 04:35:57;;;;;;;8.80;7.80;;;;;;;8.32;100.00;100817.91;5011525;28;20265;-66
2023/05/25 04:38:23;;;;;;;11.97;7.03;;;;;;;8.43;100.00;100825.22;5011706;28;20258;-67
2023/05/25 04:40:49;;;;;;;10.03;6.80;;;;;;;8.58;100.00;100823.06;5007841;28;20229;-67
2023/05/25 04:43:17;;;;;;;11.87;7.93;;;;;;;8.57;100.00;100824.78;5010307;28;20175;-66
2023/05/25 04:45:44;;;;;;;13.63;6.93;;;;;;;8.76;100.00;100819.84;5010296;28;20183;-67
2023/05/25 04:48:10;;;;;;;10.80;6.63;;;;;;;8.90;100.00;100827.03;5011293;28;20629;-66
2023/05/25 04:50:36;;;;;;;10.63;5.83;;;;;;;9.00;100.00;100828.38;5005952;28;20254;-66
2023/05/25 04:53:01;;;;;;;8.33;6.07;;;;;;;9.16;100.00;100835.53;5022314;28;20198;-68
2023/05/25 04:55:26;;;;;;;8.70;5.80;;;;;;;9.39;100.00;100832.09;5011225;28;20261;-67
2023/05/25 04:57:53;;;;;;;9.63;5.57;;;;;;;9.34;100.00;100834.84;5011157;28;20183;-67
2023/05/25 05:00:19;;;;;;;10.47;6.50;;;;;;;9.67;100.00;100838.75;5003937;28;20685;-66
2023/05/25 05:02:44;;;;;;;12.57;6.17;;;;;;;9.81;100.00;100840.75;5024518;28;20266;-66
2023/05/25 05:05:10;;;;;;;8.20;5.53;;;;;;;10.01;100.00;100843.38;5011162;28;20191;-66
2023/05/25 05:07:36;;;;;;;7.60;5.43;;;;;;;10.08;100.00;100843.13;5011365;28;20206;-66
2023/05/25 05:10:01;;;;;;;9.37;4.70;;;;;;;10.19;100.00;100843.53;5011136;28;20586;-66
2023/05/25 05:12:26;;;;;;;9.53;4.93;;;;;;;10.39;100.00;100847.06;5000000;28;20238;-66
2023/05/25 05:14:52;;;;;;;9.33;4.80;;;;;;;10.53;100.00;100852.47;5011630;28;20190;-66
2023/05/25 05:17:17;;;;;;;8.73;4.50;;;;;;;10.70;100.00;100854.28;5013374;28;20580;-66
2023/05/25 05:19:42;;;;;;;10.27;4.57;;;;;;;10.92;100.00;100864.50;5015339;28;20261;-65
2023/05/25 05:22:08;;;;;;;10.23;5.03;;;;;;;10.96;100.00;100866.06;5019933;28;20221;-66
2023/05/25 05:24:34;;;;;;;8.40;4.43;;;;;;;10.99;100.00;100862.50;5015065;28;20202;-65
2023/05/25 05:27:00;;;;;;;13.63;4.90;;;;;;;11.15;100.00;100860.09;5014338;28;20181;-66
2023/05/25 05:29:27;;;;;;;14.43;4.77;;;;;;;11.24;100.00;100864.81;5015260;28;20179;-67
2023/05/25 05:31:54;;;;;;;10.87;4.40;;;;;;;11.38;100.00;100860.78;5018557;28;20793;-66
2023/05/25 05:34:19;;;;;;;12.37;5.13;;;;;;;11.45;100.00;100857.84;5016191;28;20183;-67
2023/05/25 05:36:44;;;;;;;10.47;4.27;;;;;;;11.62;100.00;100858.78;5013350;28;20183;-66
2023/05/25 05:39:09;;;;;;;9.77;4.93;;;;;;;11.65;100.00;100866.41;5015355;28;20604;-66
2023/05/25 05:41:35;;;;;;;6.67;4.87;;;;;;;11.79;100.00;100864.00;5016289;28;20276;-66
2023/05/25 05:44:00;;;;;;;12.83;5.30;;;;;;;11.63;100.00;100874.22;5013479;28;20178;-66
2023/05/25 05:46:26;;;;;;;10.13;4.73;;;;;;;11.78;100.00;100866.63;5013072;28;20565;-66
2023/05/25 05:48:51;;;;;;;13.33;5.10;;;;;;;12.00;100.00;100863.91;5014821;28;20183;-67
2023/05/25 05:51:16;;;;;;;9.47;4.47;;;;;;;11.96;100.00;100870.13;5013997;28;20279;-67
2023/05/25 05:53:42;;;;;;;11.30;4.53;;;;;;;12.22;100.00;100862.88;5020694;28;20495;-67
2023/05/25 05:56:16;;;;;;;7.83;4.70;;;;;;;12.29;100.00;100882.28;5013713;28;20183;-66
2023/05/25 05:58:41;;;;;;;12.77;5.23;;;;;;;12.36;100.00;100877.66;5014658;28;20187;-67
2023/05/25 06:01:07;;;;;;;11.27;4.87;;;;;;;12.48;100.00;100869.31;5006168;28;20233;-66
2023/05/25 06:03:33;;;;;;;5.63;3.63;;;;;;;12.73;100.00;100873.22;5021299;28;20245;-67
2023/05/25 06:05:58;;;;;;;12.00;4.53;;;;;;;12.94;100.00;100873.88;5012783;28;20930;-67
2023/05/25 06:08:24;;;;;;;9.00;4.27;;;;;;;13.30;100.00;100869.44;5012947;28;20206;-68
2023/05/25 06:10:49;;;;;;;6.30;3.90;;;;;;;13.60;100.00;100872.13;5009624;28;20230;-67
2023/05/25 06:13:14;;;;;;;12.27;4.27;;;;;;;13.81;100.00;100874.44;5023539;28;20210;-67
2023/05/25 06:15:40;;;;;;;9.37;3.63;;;;;;;13.54;100.00;100875.88;5012296;28;20183;-67
2023/05/25 06:18:05;;;;;;;9.27;4.00;;;;;;;13.54;100.00;100885.38;5007974;28;20252;-68
2023/05/25 06:20:30;;;;;;;7.60;3.40;;;;;;;13.50;100.00;100882.13;4995693;28;20312;-67
2023/05/25 06:22:55;;;;;;;8.23;3.93;;;;;;;13.93;100.00;100881.50;5008333;28;20539;-69
2023/05/25 06:25:21;;;;;;;7.53;3.80;;;;;;;14.17;100.00;100884.44;5010299;28;20183;-70
2023/05/25 06:27:46;;;;;;;8.03;3.70;;;;;;;14.96;97.31;100887.66;5013372;28;20190;-70
2023/05/25 06:30:11;;;;;;;10.80;4.03;;;;;;;16.32;91.91;100888.66;5004698;28;20186;-70
2023/05/25 06:32:37;;;;;;;7.43;4.40;;;;;;;16.90;81.02;100890.88;5012565;28;20546;-69
2023/05/25 06:35:03;;;;;;;7.57;3.40;;;;;;;16.98;77.30;100885.19;5013153;28;20203;-68
2023/05/25 06:37:33;;;;;;;4.83;3.43;;;;;;;18.27;71.44;100887.31;5008219;28;20262;-69
2023/05/25 06:40:00;;;;;;;7.47;3.40;;;;;;;18.59;63.13;100882.25;5012109;28;20760;-68
2023/05/25 06:42:25;;;;;;;6.17;3.50;;;;;;;18.98;59.89;100890.63;5003154;28;20247;-68
2023/05/25 06:44:51;;;;;;;6.90;3.23;;;;;;;19.11;59.47;100887.88;5010682;28;20221;-69
2023/05/25 06:47:16;;;;;;;6.23;3.00;;;;;;;19.08;59.40;100888.13;5013367;28;20183;-69
2023/05/25 06:49:41;;;;;;;7.70;3.70;;;;;;;18.53;60.03;100890.53;5013471;28;20178;-69
2023/05/25 06:52:06;;;;;;;9.37;3.10;;;;;;;18.82;57.35;100898.75;5004574;28;20237;-68
2023/05/25 06:54:32;;;;;;;7.03;3.17;;;;;;;18.94;55.60;100897.03;5006908;28;20191;-68
2023/05/25 06:56:57;;;;;;;6.37;3.03;;;;;;;18.42;56.07;100887.94;5013274;28;20187;-68
2023/05/25 06:59:22;;;;;;;6.07;2.77;;;;;;;18.67;53.69;100892.13;5011451;28;20183;-69
2023/05/25 07:01:47;;;;;;;7.47;3.50;;;;;;;18.20;55.59;100892.16;4986580;28;20231;-67
2023/05/25 07:04:13;;;;;;;7.20;3.37;;;;;;;20.69;49.11;100892.59;5012500;28;20233;-67
2023/05/25 07:06:39;;;;;;;9.33;3.47;;;;;;;21.01;48.29;100902.13;5012551;28;20576;-67
2023/05/25 07:09:04;;;;;;;10.97;3.67;;;;;;;19.95;50.86;100902.19;5013042;28;20263;-68
2023/05/25 07:11:29;;;;;;;6.07;3.30;;;;;;;20.09;52.26;100904.47;5013469;28;20242;-68
2023/05/25 07:13:54;;;;;;;6.13;3.13;;;;;;;20.55;48.23;100904.22;5015758;28;20256;-68
2023/05/25 07:16:20;;;;;;;7.23;3.40;;;;;;;20.36;48.43;100903.16;5012049;28;20229;-68
2023/05/25 07:18:45;;;;;;;7.20;3.70;;;;;;;20.56;48.03;100900.66;5017891;28;20737;-68
2023/05/25 07:21:10;;;;;;;7.00;3.30;;;;;;;20.78;48.35;100894.47;5011571;28;20284;-68
2023/05/25 07:23:37;;;;;;;5.13;3.00;;;;;;;22.60;42.67;100905.53;5005036;28;20194;-67
2023/05/25 07:26:02;;;;;;;5.70;2.80;;;;;;;22.68;40.09;100898.59;5012297;28;20795;-67
2023/05/25 07:28:31;;;;;;;5.90;2.90;;;;;;;22.44;40.60;100898.25;5011087;28;20191;-68
2023/05/25 07:30:56;;;;;;;6.43;3.07;;;;;;;21.80;38.30;100909.19;4988978;28;20326;-68
2023/05/25 07:33:21;;;;;;;8.90;2.80;;;;;;;20.80;40.79;100903.00;5021205;28;20293;-67
2023/05/25 07:35:47;;;;;;;6.63;3.50;;;;;;;21.12;43.51;100900.25;5012625;28;20186;-68
2023/05/25 07:38:12;;;;;;;7.80;3.53;;;;;;;21.36;42.17;100891.22;5012409;28;20262;-67
2023/05/25 07:40:37;;;;;;;5.83;3.03;;;;;;;22.16;40.30;100888.47;5007009;28;20280;-67
2023/05/25 07:43:04;;;;;;;6.70;2.73;;;;;;;22.05;39.03;100897.34;5023275;28;20255;-68
2023/05/25 07:45:29;;;;;;;5.67;3.13;;;;;;;21.43;38.99;100907.19;5011849;28;20190;-68
2023/05/25 07:47:54;;;;;;;8.20;2.97;;;;;;;21.64;39.51;100895.81;5011979;28;20175;-69
2023/05/25 07:50:20;;;;;;;8.60;3.50;;;;;;;22.05;37.66;100904.38;5003161;28;20210;-68
2023/05/25 07:52:45;;;;;;;6.07;3.20;;;;;;;20.96;40.03;100899.88;5025130;28;20608;-68
2023/05/25 07:55:11;;;;;;;5.23;3.30;;;;;;;21.95;37.76;100900.94;5011847;28;20185;-68
2023/05/25 07:57:36;;;;;;;7.97;3.67;;;;;;;22.73;37.61;100895.56;5010700;28;20182;-68
2023/05/25 08:00:04;;;;;;;5.72;2.92;;;;;;;22.25;38.78;100892.91;4999951;28;20187;-67
2023/05/25 08:02:30;;;;;;;6.13;3.08;;;;;;;22.85;37.46;100893.59;5014017;28;20234;-68
2023/05/25 08:04:55;;;;;;;8.70;3.60;;;;;;;24.46;34.93;100902.50;5011013;28;20406;-69
2023/05/25 08:07:20;;;;;;;7.05;3.42;;;;;;;25.08;33.53;100898.88;5011383;28;20222;-68
2023/05/25 08:09:46;;;;;;;6.32;3.17;;;;;;;24.35;34.32;100892.25;5011902;28;20329;-68
2023/05/25 08:12:11;;;;;;;8.93;2.97;;;;;;;22.46;36.75;100901.56;5016745;28;20260;-69
2023/05/25 08:14:36;;;;;;;11.38;4.00;;;;;;;22.84;36.67;100899.78;5011956;28;20193;-69
2023/05/25 08:17:03;;;;;;;6.00;3.15;;;;;;;23.07;36.31;100902.03;5011340;28;20202;-67
2023/05/25 08:19:30;;;;;;;7.32;3.03;;;;;;;23.39;36.17;100898.16;5012100;28;20652;-67
2023/05/25 08:21:55;;;;;;;8.15;5.00;;;;;;;23.55;35.79;100897.50;5015856;28;20237;-67
2023/05/25 08:24:21;;;;;;;6.30;3.42;;;;;;;24.98;33.49;100896.38;5009959;28;20205;-67
2023/05/25 08:26:47;;;;;;;5.95;3.38;;;;;;;23.84;33.47;100908.59;5011229;28;20641;-67
2023/05/25 08:29:13;;;;;;;7.07;3.15;;;;;;;22.98;35.83;100898.47;5003700;28;20219;-68
2023/05/25 08:31:40;;;;;;;6.28;3.05;;;;;;;22.29;36.34;100890.81;5004499;28;20320;-66
2023/05/25 08:34:06;;;;;;;5.93;2.97;;;;;;;22.93;36.16;100893.66;5005619;28;20189;-67
2023/05/25 08:36:34;;;;;;;5.75;3.10;;;;;;;23.85;34.35;100897.13;5010953;28;20183;-67
2023/05/25 08:39:00;;;;;;;5.10;3.03;;;;;;;23.13;34.80;100897.00;5011853;28;20631;-68
2023/05/25 08:41:25;;;;;;;6.75;3.20;;;;;;;23.74;34.50;100907.88;5011883;28;20279;-67
2023/05/25 08:43:50;;;;;;;5.30;2.63;;;;;;;23.08;35.63;100908.94;5015765;28;20218;-68
2023/05/25 08:46:28;;;;;;;8.73;3.80;;;;;;;22.28;36.70;100904.91;5010819;28;20194;-66
2023/05/25 08:49:01;;;;;;;5.65;3.00;;;;;;;21.60;37.29;100905.75;5011526;28;20534;-68
2023/05/25 08:51:28;;;;;;;5.35;3.03;;;;;;;21.73;37.38;100908.06;5004191;28;20249;-68
2023/05/25 08:53:57;;;;;;;6.00;3.42;;;;;;;22.22;37.28;100902.84;5019840;28;20186;-68
2023/05/25 08:56:27;;;;;;;11.35;6.18;;;;;;;21.79;37.35;100915.38;5001311;28;20270;-67
2023/05/25 08:59:01;;;;;;;6.80;3.17;;;;;;;21.85;37.94;100901.75;5008019;28;20191;-67
2023/05/25 09:01:30;;;;;;;4.90;2.72;;;;;;;21.76;36.74;100910.44;5002420;28;20228;-68
2023/05/25 09:03:57;;;;;;;6.65;2.95;;;;;;;22.62;36.39;100900.97;5019265;28;20261;-68
2023/05/25 09:06:25;;;;;;;7.55;3.05;;;;;;;23.13;35.21;100904.06;5014833;28;20185;-67
2023/05/25 09:08:51;;;;;;;7.65;3.40;;;;;;;22.37;37.27;100900.59;5015361;28;20171;-68
2023/05/25 09:11:17;;;;;;;6.18;3.42;;;;;;;22.39;36.85;100901.31;5014452;28;20234;-69
2023/05/25 09:13:42;;;;;;;6.47;2.97;;;;;;;23.74;35.74;100902.59;5021059;28;20529;-68
2023/05/25 09:16:07;;;;;;;8.82;2.83;;;;;;;24.01;34.16;100898.25;5014512;28;20190;-68
2023/05/25 09:18:33;;;;;;;5.13;3.08;;;;;;;23.93;34.37;100914.78;5014608;28;20198;-68
2023/05/25 09:20:58;;;;;;;4.68;2.72;;;;;;;23.69;34.07;100910.09;5012139;28;20305;-67
2023/05/25 09:23:23;;;;;;;6.30;2.63;;;;;;;23.30;34.04;100910.38;5022794;28;20183;-67
2023/05/25 09:25:49;;;;;;;4.43;2.40;;;;;;;23.36;33.27;100901.91;5014489;28;20193;-68
2023/05/25 09:28:19;;;;;;;4.50;2.38;;;;;;;24.87;31.39;100909.81;5014146;28;20673;-67
2023/05/25 09:30:44;;;;;;;6.47;3.00;;;;;;;24.20;32.31;100914.81;4998293;28;20253;-67
2023/05/25 09:33:16;;;;;;;6.88;3.53;;;;;;;25.14;32.07;100916.66;5024494;28;20213;-67
2023/05/25 09:35:43;;;;;;;6.60;2.75;;;;;;;24.84;32.36;100917.19;5014704;28;20265;-67
2023/05/25 09:38:08;;;;;;;5.63;2.88;;;;;;;23.71;33.10;100916.03;5014367;28;20202;-68
2023/05/25 09:40:34;;;;;;;8.13;3.13;;;;;;;24.93;32.41;100905.72;5008562;28;20249;-67
2023/05/25 09:43:01;;;;;;;5.93;2.90;;;;;;;24.85;32.06;100909.13;5013249;28;20187;-68
2023/05/25 09:45:27;;;;;;;4.68;2.72;;;;;;;24.32;33.76;100919.69;5013992;28;20581;-67
2023/05/25 09:47:56;;;;;;;5.50;3.25;;;;;;;24.56;33.67;100910.28;5014393;28;20182;-67
2023/05/25 09:50:21;;;;;;;10.32;3.00;;;;;;;24.02;34.73;100915.66;5005348;28;20237;-67
2023/05/25 09:52:47;;;;;;;4.80;2.97;;;;;;;24.20;35.23;100913.03;5027311;28;20581;-68
2023/05/25 09:55:12;;;;;;;7.63;3.20;;;;;;;23.84;35.22;100908.59;5014103;28;20642;-67
2023/05/25 09:57:37;;;;;;;4.75;2.95;;;;;;;24.72;34.26;100906.97;5012873;28;20634;-67
2023/05/25 10:00:04;;;;;;;8.65;3.08;;;;;;;24.74;34.52;100912.06;5008625;28;20258;-67
2023/05/25 10:02:30;;;;;;;4.45;2.55;;;;;;;23.61;35.20;100904.78;5028929;28;20261;-68
2023/05/25 10:04:55;;;;;;;6.50;3.40;;;;;;;22.76;37.43;100908.41;5014281;28;20183;-69
2023/05/25 10:07:21;;;;;;;4.97;2.90;;;;;;;24.07;36.19;100912.59;5013687;28;20187;-67
2023/05/25 10:09:49;;;;;;;5.90;3.15;;;;;;;23.92;36.52;100914.94;5014323;28;20275;-67
2023/05/25 10:12:18;;;;;;;13.80;3.30;;;;;;;24.13;36.82;100911.97;5019386;28;20234;-66
2023/05/25 10:14:45;;;;;;;4.25;2.60;;;;;;;24.44;35.71;100912.34;5014820;28;20206;-66
2023/05/25 10:17:11;;;;;;;5.20;3.20;;;;;;;24.52;34.77;100916.00;5013774;28;20638;-65
2023/05/25 10:19:41;;;;;;;7.65;3.22;;;;;;;23.98;36.51;100917.78;5014355;28;20229;-66
2023/05/25 10:22:22;;;;;;;6.20;2.92;;;;;;;25.02;34.37;100914.47;5004609;28;20222;-66
2023/05/25 10:24:58;;;;;;;3.83;2.85;;;;;;;25.57;34.35;100913.16;5000572;28;20187;-65
2023/05/25 10:27:28;;;;;;;6.05;3.50;;;;;;;25.51;34.26;100919.09;5009284;28;20213;-64
2023/05/25 10:29:55;;;;;;;4.32;2.63;;;;;;;24.76;35.05;100924.06;5000391;28;20202;-63
2023/05/25 10:32:21;;;;;;;6.18;2.70;;;;;;;25.19;34.50;100920.63;5018473;28;20225;-66
2023/05/25 10:34:47;;;;;;;6.80;2.70;;;;;;;24.14;36.10;100913.63;5014473;28;20233;-64
2023/05/25 10:37:13;;;;;;;5.13;2.78;;;;;;;25.32;35.10;100907.81;5013999;28;20207;-64
2023/05/25 10:39:41;;;;;;;3.95;2.80;;;;;;;23.68;37.23;100911.91;5013965;28;20592;-66
2023/05/25 10:42:06;;;;;;;4.47;2.75;;;;;;;22.29;39.98;100901.31;4995384;28;20214;-65
2023/05/25 10:44:32;;;;;;;6.82;2.97;;;;;;;21.00;43.47;100893.47;5008346;28;20634;-64
2023/05/25 10:46:59;;;;;;;6.90;3.23;;;;;;;20.41;46.23;100897.53;5012070;28;20182;-64
2023/05/25 10:49:32;;;;;;;7.43;3.20;;;;;;;20.19;48.19;100885.44;5014705;28;20179;-65
2023/05/25 10:51:58;;;;;;;5.00;3.63;;;;;;;20.09;50.03;100888.78;5019194;28;20221;-64
2023/05/25 10:54:29;;;;;;;9.97;3.40;;;;;;;20.51;48.97;100887.16;5014530;28;20194;-66
2023/05/25 10:57:30;;;;;;;6.43;3.47;;;;;;;20.06;49.73;100881.22;5013015;28;20593;-65
2023/05/25 11:00:09;;;;;;;9.13;3.13;;;;;;;20.04;50.79;100872.69;4971793;28;20183;-65
2023/05/25 11:02:52;;;;;;;5.87;3.27;;;;;;;19.96;51.34;100888.19;4951603;28;20617;-64
2023/05/25 11:05:26;;;;;;;7.90;3.93;;;;;;;19.68;53.02;100880.78;4972334;28;20192;-64
2023/05/25 11:07:59;;;;;;;6.03;3.50;;;;;;;19.56;53.07;100873.94;4971837;28;20192;-65
2023/05/25 11:10:51;;;;;;;4.70;2.90;;;;;;;19.83;54.54;100877.88;4962613;28;20275;-65
2023/05/25 11:13:34;;;;;;;6.03;2.87;;;;;;;19.92;53.00;100863.25;4960267;28;20210;-65
2023/05/25 11:16:16;;;;;;;4.77;3.40;;;;;;;19.53;52.05;100866.34;4961561;28;20236;-64
2023/05/25 11:18:42;;;;;;;3.70;2.70;;;;;;;19.52;52.99;100869.91;4972399;28;20299;-65
2023/05/25 11:21:17;;;;;;;7.07;3.30;;;;;;;19.61;52.38;100881.38;4961979;28;20223;-66
2023/05/25 11:24:13;;;;;;;5.30;3.20;;;;;;;19.61;52.76;100869.16;4972047;28;20183;-67